sensor_id;sensor_type;location;lat;lon;timestamp;temperature;humidity
11112;DHT22;5609;49.466;8.468;2023-04-25T00:01:37;9.40;99.90
11112;DHT22;5609;49.466;8.468;2023-04-25T00:04:06;9.40;99.90
11112;DHT22;5609;49.466;8.468;2023-04-25T00:06:34;9.40;99.90
11112;DHT22;5609;49.466;8.468;2023-04-25T00:09:01;9.50;99.90
11112;DHT22;5609;49.466;8.468;2023-04-25T00:11:29;9.40;99.90
11112;DHT22;5609;49.466;8.468;2023-04-25T00:13:56;9.40;99.90
11112;DHT22;5609;49.466;8.468;2023-04-25T00:16:23;9.50;99.90
11112;DHT22;5609;49.466;8.468;2023-04-25T00:18:49;9.40;99.90
11112;DHT22;5609;49.466;8.468;2023-04-25T00:21:20;9.50;99.90
11112;DHT22;5609;49.466;8.468;2023-04-25T00:23:47;9.40;99.90
11112;DHT22;5609;49.466;8.468;2023-04-25T00:26:14;9.40;99.90
11112;DHT22;5609;49.466;8.468;2023-04-25T00:28:41;9.40;99.90
11112;DHT22;5609;49.466;8.468;2023-04-25T00:31:07;9.50;99.90
11112;DHT22;5609;49.466;8.468;2023-04-25T00:33:34;9.50;99.90
11112;DHT22;5609;49.466;8.468;2023-04-25T00:36:01;9.50;99.90
11112;DHT22;5609;49.466;8.468;2023-04-25T00:38:29;9.60;99.90
11112;DHT22;5609;49.466;8.468;2023-04-25T00:40:56;9.60;99.90
11112;DHT22;5609;49.466;8.468;2023-04-25T00:43:23;9.50;99.90
11112;DHT22;5609;49.466;8.468;2023-04-25T00:45:52;9.50;99.90
11112;DHT22;5609;49.466;8.468;2023-04-25T00:48:21;9.50;99.90
11112;DHT22;5609;49.466;8.468;2023-04-25T00:50:52;9.50;99.90
11112;DHT22;5609;49.466;8.468;2023-04-25T00:53:19;9.60;99.90
11112;DHT22;5609;49.466;8.468;2023-04-25T00:55:48;9.60;99.90
11112;DHT22;5609;49.466;8.468;2023-04-25T00:58:16;9.60;99.90
11112;DHT22;5609;49.466;8.468;2023-04-25T01:00:44;9.60;99.90
11112;DHT22;5609;49.466;8.468;2023-04-25T01:03:12;9.60;99.90
11112;DHT22;5609;49.466;8.468;2023-04-25T01:05:39;9.60;99.90
11112;DHT22;5609;49.466;8.468;2023-04-25T01:08:07;9.60;99.90
11112;DHT22;5609;49.466;8.468;2023-04-25T01:10:34;9.60;99.90
11112;DHT22;5609;49.466;8.468;2023-04-25T01:13:02;9.60;99.90
11112;DHT22;5609;49.466;8.468;2023-04-25T01:15:29;9.70;99.90
11112;DHT22;5609;49.466;8.468;2023-04-25T01:17:56;9.70;99.90
11112;DHT22;5609;49.466;8.468;2023-04-25T01:20:23;9.70;99.90
11112;DHT22;5609;49.466;8.468;2023-04-25T01:22:53;9.70;99.90
11112;DHT22;5609;49.466;8.468;2023-04-25T01:25:20;9.70;99.90
11112;DHT22;5609;49.466;8.468;2023-04-25T01:27:47;9.70;99.90
11112;DHT22;5609;49.466;8.468;2023-04-25T01:30:15;9.80;99.90
11112;DHT22;5609;49.466;8.468;2023-04-25T01:32:42;9.70;99.90
11112;DHT22;5609;49.466;8.468;2023-04-25T01:35:10;9.70;99.90
11112;DHT22;5609;49.466;8.468;2023-04-25T01:37:38;9.70;99.90
11112;DHT22;5609;49.466;8.468;2023-04-25T01:40:08;9.70;99.90
11112;DHT22;5609;49.466;8.468;2023-04-25T01:42:36;9.70;99.90
11112;DHT22;5609;49.466;8.468;2023-04-25T01:45:04;9.70;99.90
11112;DHT22;5609;49.466;8.468;2023-04-25T01:47:32;9.70;99.90
11112;DHT22;5609;49.466;8.468;2023-04-25T01:50:00;9.70;99.90
11112;DHT22;5609;49.466;8.468;2023-04-25T01:52:27;9.60;99.90
11112;DHT22;5609;49.466;8.468;2023-04-25T01:54:54;9.60;99.90
11112;DHT22;5609;49.466;8.468;2023-04-25T01:57:22;9.50;99.90
11112;DHT22;5609;49.466;8.468;2023-04-25T01:59:49;9.40;99.90
11112;DHT22;5609;49.466;8.468;2023-04-25T02:02:16;9.30;99.90
11112;DHT22;5609;49.466;8.468;2023-04-25T02:04:43;9.40;99.90
11112;DHT22;5609;49.466;8.468;2023-04-25T02:07:10;9.30;99.90
11112;DHT22;5609;49.466;8.468;2023-04-25T02:09:36;9.40;99.90
11112;DHT22;5609;49.466;8.468;2023-04-25T02:12:03;9.30;99.90
11112;DHT22;5609;49.466;8.468;2023-04-25T02:14:32;9.30;99.90
11112;DHT22;5609;49.466;8.468;2023-04-25T02:16:58;9.20;99.90
11112;DHT22;5609;49.466;8.468;2023-04-25T02:19:25;9.20;99.90
11112;DHT22;5609;49.466;8.468;2023-04-25T02:21:52;9.20;99.90
11112;DHT22;5609;49.466;8.468;2023-04-25T02:24:18;9.20;99.90
11112;DHT22;5609;49.466;8.468;2023-04-25T02:26:45;9.20;99.90
11112;DHT22;5609;49.466;8.468;2023-04-25T02:29:13;9.20;99.90
11112;DHT22;5609;49.466;8.468;2023-04-25T02:31:42;9.20;99.90
11112;DHT22;5609;49.466;8.468;2023-04-25T02:34:08;9.20;99.90
11112;DHT22;5609;49.466;8.468;2023-04-25T02:36:35;9.20;99.90
11112;DHT22;5609;49.466;8.468;2023-04-25T02:39:02;9.10;99.90
11112;DHT22;5609;49.466;8.468;2023-04-25T02:41:29;9.10;99.90
11112;DHT22;5609;49.466;8.468;2023-04-25T02:43:55;9.10;99.90
11112;DHT22;5609;49.466;8.468;2023-04-25T02:46:22;9.10;99.90
11112;DHT22;5609;49.466;8.468;2023-04-25T02:48:50;9.20;99.90
11112;DHT22;5609;49.466;8.468;2023-04-25T02:51:17;9.20;99.90
11112;DHT22;5609;49.466;8.468;2023-04-25T02:53:44;9.10;99.90
11112;DHT22;5609;49.466;8.468;2023-04-25T02:56:10;9.00;99.90
11112;DHT22;5609;49.466;8.468;2023-04-25T02:58:37;9.00;99.90
11112;DHT22;5609;49.466;8.468;2023-04-25T03:01:04;9.00;99.90
11112;DHT22;5609;49.466;8.468;2023-04-25T03:03:31;9.00;99.90
11112;DHT22;5609;49.466;8.468;2023-04-25T03:05:59;9.00;99.90
11112;DHT22;5609;49.466;8.468;2023-04-25T03:08:25;9.00;99.90
11112;DHT22;5609;49.466;8.468;2023-04-25T03:10:57;9.00;99.90
11112;DHT22;5609;49.466;8.468;2023-04-25T03:13:24;8.90;99.90
11112;DHT22;5609;49.466;8.468;2023-04-25T03:15:51;8.90;99.90
11112;DHT22;5609;49.466;8.468;2023-04-25T03:18:18;8.90;99.90
11112;DHT22;5609;49.466;8.468;2023-04-25T03:20:44;8.90;99.90
11112;DHT22;5609;49.466;8.468;2023-04-25T03:23:13;8.80;99.90
11112;DHT22;5609;49.466;8.468;2023-04-25T03:25:40;8.80;99.90
11112;DHT22;5609;49.466;8.468;2023-04-25T03:28:07;8.80;99.90
11112;DHT22;5609;49.466;8.468;2023-04-25T03:30:33;8.80;99.90
11112;DHT22;5609;49.466;8.468;2023-04-25T03:33:00;8.70;99.90
11112;DHT22;5609;49.466;8.468;2023-04-25T03:35:27;8.80;99.90
11112;DHT22;5609;49.466;8.468;2023-04-25T03:37:53;8.80;99.90
11112;DHT22;5609;49.466;8.468;2023-04-25T03:40:22;8.80;99.90
11112;DHT22;5609;49.466;8.468;2023-04-25T03:42:48;8.80;99.90
11112;DHT22;5609;49.466;8.468;2023-04-25T03:45:15;8.80;99.90
11112;DHT22;5609;49.466;8.468;2023-04-25T03:47:42;8.80;99.90
11112;DHT22;5609;49.466;8.468;2023-04-25T03:50:09;8.80;99.90
11112;DHT22;5609;49.466;8.468;2023-04-25T03:52:36;8.80;99.90
11112;DHT22;5609;49.466;8.468;2023-04-25T03:55:03;8.70;99.90
11112;DHT22;5609;49.466;8.468;2023-04-25T03:57:32;8.70;99.90
11112;DHT22;5609;49.466;8.468;2023-04-25T03:59:59;8.70;99.90
11112;DHT22;5609;49.466;8.468;2023-04-25T04:02:25;8.70;99.90
11112;DHT22;5609;49.466;8.468;2023-04-25T04:04:52;8.70;99.90
11112;DHT22;5609;49.466;8.468;2023-04-25T04:07:19;8.80;99.90
11112;DHT22;5609;49.466;8.468;2023-04-25T04:09:46;8.80;99.90
11112;DHT22;5609;49.466;8.468;2023-04-25T04:12:12;8.80;99.90
11112;DHT22;5609;49.466;8.468;2023-04-25T04:14:41;8.80;99.90
11112;DHT22;5609;49.466;8.468;2023-04-25T04:17:08;8.80;99.90
11112;DHT22;5609;49.466;8.468;2023-04-25T04:19:35;8.80;99.90
11112;DHT22;5609;49.466;8.468;2023-04-25T04:22:01;8.80;99.90
11112;DHT22;5609;49.466;8.468;2023-04-25T04:24:28;8.70;99.90
11112;DHT22;5609;49.466;8.468;2023-04-25T04:26:55;8.70;99.90
11112;DHT22;5609;49.466;8.468;2023-04-25T04:29:22;8.70;99.90
11112;DHT22;5609;49.466;8.468;2023-04-25T04:31:51;8.80;99.90
11112;DHT22;5609;49.466;8.468;2023-04-25T04:34:17;8.80;99.90
11112;DHT22;5609;49.466;8.468;2023-04-25T04:36:44;8.80;99.90
11112;DHT22;5609;49.466;8.468;2023-04-25T04:39:12;8.80;99.90
11112;DHT22;5609;49.466;8.468;2023-04-25T04:41:39;8.90;99.90
11112;DHT22;5609;49.466;8.468;2023-04-25T04:44:06;8.80;99.90
11112;DHT22;5609;49.466;8.468;2023-04-25T04:46:34;8.80;99.90
11112;DHT22;5609;49.466;8.468;2023-04-25T04:49:04;8.80;99.90
11112;DHT22;5609;49.466;8.468;2023-04-25T04:51:31;8.80;99.90
11112;DHT22;5609;49.466;8.468;2023-04-25T04:53:58;8.90;99.90
11112;DHT22;5609;49.466;8.468;2023-04-25T04:56:27;8.80;99.90
11112;DHT22;5609;49.466;8.468;2023-04-25T04:58:54;8.90;99.90
11112;DHT22;5609;49.466;8.468;2023-04-25T05:01:21;9.00;99.90
11112;DHT22;5609;49.466;8.468;2023-04-25T05:03:48;8.90;99.90
11112;DHT22;5609;49.466;8.468;2023-04-25T05:06:17;8.90;99.90
11112;DHT22;5609;49.466;8.468;2023-04-25T05:08:44;9.00;99.90
11112;DHT22;5609;49.466;8.468;2023-04-25T05:11:11;9.00;99.90
11112;DHT22;5609;49.466;8.468;2023-04-25T05:13:38;9.00;99.90
11112;DHT22;5609;49.466;8.468;2023-04-25T05:16:04;9.10;99.90
11112;DHT22;5609;49.466;8.468;2023-04-25T05:18:31;9.10;99.90
11112;DHT22;5609;49.466;8.468;2023-04-25T05:20:58;9.20;99.90
11112;DHT22;5609;49.466;8.468;2023-04-25T05:23:26;9.20;99.90
11112;DHT22;5609;49.466;8.468;2023-04-25T05:25:55;9.20;99.90
11112;DHT22;5609;49.466;8.468;2023-04-25T05:28:22;9.30;99.90
11112;DHT22;5609;49.466;8.468;2023-04-25T05:30:49;9.20;99.90
11112;DHT22;5609;49.466;8.468;2023-04-25T05:33:16;9.30;99.90
11112;DHT22;5609;49.466;8.468;2023-04-25T05:35:42;9.40;99.90
11112;DHT22;5609;49.466;8.468;2023-04-25T05:38:09;9.50;99.90
11112;DHT22;5609;49.466;8.468;2023-04-25T05:40:38;9.50;99.90
11112;DHT22;5609;49.466;8.468;2023-04-25T05:43:04;9.40;99.90
11112;DHT22;5609;49.466;8.468;2023-04-25T05:45:31;9.40;99.90
11112;DHT22;5609;49.466;8.468;2023-04-25T05:47:58;9.40;99.90
11112;DHT22;5609;49.466;8.468;2023-04-25T05:50:24;9.40;99.90
11112;DHT22;5609;49.466;8.468;2023-04-25T05:52:51;9.40;99.90
11112;DHT22;5609;49.466;8.468;2023-04-25T05:55:18;9.40;99.90
11112;DHT22;5609;49.466;8.468;2023-04-25T05:57:46;9.40;99.90
11112;DHT22;5609;49.466;8.468;2023-04-25T06:00:14;9.50;99.90
11112;DHT22;5609;49.466;8.468;2023-04-25T06:02:41;9.50;99.90
11112;DHT22;5609;49.466;8.468;2023-04-25T06:05:08;9.50;99.90
11112;DHT22;5609;49.466;8.468;2023-04-25T06:07:35;9.40;99.90
11112;DHT22;5609;49.466;8.468;2023-04-25T06:10:02;9.40;99.90
11112;DHT22;5609;49.466;8.468;2023-04-25T06:12:31;9.40;99.90
11112;DHT22;5609;49.466;8.468;2023-04-25T06:15:00;9.30;99.90
11112;DHT22;5609;49.466;8.468;2023-04-25T06:17:27;9.40;99.90
11112;DHT22;5609;49.466;8.468;2023-04-25T06:19:54;9.40;99.90
11112;DHT22;5609;49.466;8.468;2023-04-25T06:22:20;9.40;99.90
11112;DHT22;5609;49.466;8.468;2023-04-25T06:24:47;9.40;99.90
11112;DHT22;5609;49.466;8.468;2023-04-25T06:27:14;9.40;99.90
11112;DHT22;5609;49.466;8.468;2023-04-25T06:29:40;9.30;99.90
11112;DHT22;5609;49.466;8.468;2023-04-25T06:32:08;9.30;99.90
11112;DHT22;5609;49.466;8.468;2023-04-25T06:34:35;9.30;99.90
11112;DHT22;5609;49.466;8.468;2023-04-25T06:37:02;9.30;99.90
11112;DHT22;5609;49.466;8.468;2023-04-25T06:39:29;9.30;99.90
11112;DHT22;5609;49.466;8.468;2023-04-25T06:41:55;9.20;99.90
11112;DHT22;5609;49.466;8.468;2023-04-25T06:44:22;9.20;99.90
11112;DHT22;5609;49.466;8.468;2023-04-25T06:46:51;9.20;99.90
11112;DHT22;5609;49.466;8.468;2023-04-25T06:49:19;9.20;99.90
11112;DHT22;5609;49.466;8.468;2023-04-25T06:51:46;9.10;99.90
11112;DHT22;5609;49.466;8.468;2023-04-25T06:54:13;9.10;99.90
11112;DHT22;5609;49.466;8.468;2023-04-25T06:56:40;9.10;99.90
11112;DHT22;5609;49.466;8.468;2023-04-25T06:59:07;9.10;99.90
11112;DHT22;5609;49.466;8.468;2023-04-25T07:01:33;9.10;99.90
11112;DHT22;5609;49.466;8.468;2023-04-25T07:04:00;9.30;99.90
11112;DHT22;5609;49.466;8.468;2023-04-25T07:06:28;9.30;99.90
11112;DHT22;5609;49.466;8.468;2023-04-25T07:08:56;9.40;99.90
11112;DHT22;5609;49.466;8.468;2023-04-25T07:11:23;9.50;99.90
11112;DHT22;5609;49.466;8.468;2023-04-25T07:13:50;9.40;99.90
11112;DHT22;5609;49.466;8.468;2023-04-25T07:16:17;9.40;99.90
11112;DHT22;5609;49.466;8.468;2023-04-25T07:18:43;9.30;99.90
11112;DHT22;5609;49.466;8.468;2023-04-25T07:21:10;9.40;99.90
11112;DHT22;5609;49.466;8.468;2023-04-25T07:23:38;9.40;99.90
11112;DHT22;5609;49.466;8.468;2023-04-25T07:26:06;9.40;99.90
11112;DHT22;5609;49.466;8.468;2023-04-25T07:28:33;9.40;99.90
11112;DHT22;5609;49.466;8.468;2023-04-25T07:31:00;9.50;99.90
11112;DHT22;5609;49.466;8.468;2023-04-25T07:33:27;9.50;99.90
11112;DHT22;5609;49.466;8.468;2023-04-25T07:35:53;9.50;99.90
11112;DHT22;5609;49.466;8.468;2023-04-25T07:38:21;9.30;99.90
11112;DHT22;5609;49.466;8.468;2023-04-25T07:40:49;9.30;99.90
11112;DHT22;5609;49.466;8.468;2023-04-25T07:43:16;9.20;99.90
11112;DHT22;5609;49.466;8.468;2023-04-25T07:45:42;9.30;99.90
11112;DHT22;5609;49.466;8.468;2023-04-25T07:48:09;9.40;99.90
11112;DHT22;5609;49.466;8.468;2023-04-25T07:50:36;9.50;99.90
11112;DHT22;5609;49.466;8.468;2023-04-25T07:53:03;9.50;99.90
11112;DHT22;5609;49.466;8.468;2023-04-25T07:55:30;9.50;99.90
11112;DHT22;5609;49.466;8.468;2023-04-25T07:57:58;9.60;99.90
11112;DHT22;5609;49.466;8.468;2023-04-25T08:00:24;9.80;99.90
11112;DHT22;5609;49.466;8.468;2023-04-25T08:02:51;9.80;99.90
11112;DHT22;5609;49.466;8.468;2023-04-25T08:05:18;9.90;99.90
11112;DHT22;5609;49.466;8.468;2023-04-25T08:07:44;9.90;99.90
11112;DHT22;5609;49.466;8.468;2023-04-25T08:10:14;9.90;99.90
11112;DHT22;5609;49.466;8.468;2023-04-25T08:12:41;10.00;99.90
11112;DHT22;5609;49.466;8.468;2023-04-25T08:15:09;10.30;99.90
11112;DHT22;5609;49.466;8.468;2023-04-25T08:17:36;10.40;99.90
11112;DHT22;5609;49.466;8.468;2023-04-25T08:20:04;10.60;99.90
11112;DHT22;5609;49.466;8.468;2023-04-25T08:22:31;10.60;99.90
11112;DHT22;5609;49.466;8.468;2023-04-25T08:24:59;10.60;99.90
11112;DHT22;5609;49.466;8.468;2023-04-25T08:27:26;10.50;99.90
11112;DHT22;5609;49.466;8.468;2023-04-25T08:29:52;10.60;99.90
11112;DHT22;5609;49.466;8.468;2023-04-25T08:32:20;10.70;99.90
11112;DHT22;5609;49.466;8.468;2023-04-25T08:34:47;10.80;99.90
11112;DHT22;5609;49.466;8.468;2023-04-25T08:37:14;10.60;99.90
11112;DHT22;5609;49.466;8.468;2023-04-25T08:39:41;10.80;99.90
11112;DHT22;5609;49.466;8.468;2023-04-25T08:42:08;11.00;99.90
11112;DHT22;5609;49.466;8.468;2023-04-25T08:44:35;11.30;99.90
11112;DHT22;5609;49.466;8.468;2023-04-25T08:47:03;11.60;99.90
11112;DHT22;5609;49.466;8.468;2023-04-25T08:49:32;11.60;99.90
11112;DHT22;5609;49.466;8.468;2023-04-25T08:52:04;11.60;99.90
11112;DHT22;5609;49.466;8.468;2023-04-25T08:54:32;11.60;99.90
11112;DHT22;5609;49.466;8.468;2023-04-25T08:57:01;11.50;99.90
11112;DHT22;5609;49.466;8.468;2023-04-25T08:59:30;11.60;99.90
11112;DHT22;5609;49.466;8.468;2023-04-25T09:01:57;11.70;99.90
11112;DHT22;5609;49.466;8.468;2023-04-25T09:04:24;11.70;99.90
11112;DHT22;5609;49.466;8.468;2023-04-25T09:06:52;11.70;99.90
11112;DHT22;5609;49.466;8.468;2023-04-25T09:09:19;11.60;99.90
11112;DHT22;5609;49.466;8.468;2023-04-25T09:11:46;11.90;99.90
11112;DHT22;5609;49.466;8.468;2023-04-25T09:14:15;12.20;99.90
11112;DHT22;5609;49.466;8.468;2023-04-25T09:17:01;12.50;99.90
11112;DHT22;5609;49.466;8.468;2023-04-25T09:19:29;12.90;99.90
11112;DHT22;5609;49.466;8.468;2023-04-25T09:22:02;12.80;99.90
11112;DHT22;5609;49.466;8.468;2023-04-25T09:24:34;13.00;99.90
11112;DHT22;5609;49.466;8.468;2023-04-25T09:27:04;13.10;99.90
11112;DHT22;5609;49.466;8.468;2023-04-25T09:29:31;12.80;99.90
11112;DHT22;5609;49.466;8.468;2023-04-25T09:32:18;12.50;99.90
11112;DHT22;5609;49.466;8.468;2023-04-25T09:34:47;12.50;99.90
11112;DHT22;5609;49.466;8.468;2023-04-25T09:37:19;12.70;99.90
11112;DHT22;5609;49.466;8.468;2023-04-25T09:39:47;13.00;99.90
11112;DHT22;5609;49.466;8.468;2023-04-25T09:42:15;13.10;99.90
11112;DHT22;5609;49.466;8.468;2023-04-25T09:44:43;13.30;99.90
11112;DHT22;5609;49.466;8.468;2023-04-25T09:47:10;13.20;99.90
11112;DHT22;5609;49.466;8.468;2023-04-25T09:49:39;13.30;99.90
11112;DHT22;5609;49.466;8.468;2023-04-25T09:52:07;13.00;99.90
11112;DHT22;5609;49.466;8.468;2023-04-25T09:54:35;12.60;99.90
11112;DHT22;5609;49.466;8.468;2023-04-25T09:57:08;12.70;99.90
11112;DHT22;5609;49.466;8.468;2023-04-25T09:59:38;12.50;99.90
11112;DHT22;5609;49.466;8.468;2023-04-25T10:02:07;12.50;99.90
11112;DHT22;5609;49.466;8.468;2023-04-25T10:04:35;12.50;99.90
11112;DHT22;5609;49.466;8.468;2023-04-25T10:07:03;12.80;99.90
11112;DHT22;5609;49.466;8.468;2023-04-25T10:09:32;13.10;99.90
11112;DHT22;5609;49.466;8.468;2023-04-25T10:12:01;12.90;99.90
11112;DHT22;5609;49.466;8.468;2023-04-25T10:14:29;13.00;99.90
11112;DHT22;5609;49.466;8.468;2023-04-25T10:16:57;13.00;99.90
11112;DHT22;5609;49.466;8.468;2023-04-25T10:19:25;13.20;99.90
11112;DHT22;5609;49.466;8.468;2023-04-25T10:21:55;13.10;99.90
11112;DHT22;5609;49.466;8.468;2023-04-25T10:24:23;13.00;99.90
11112;DHT22;5609;49.466;8.468;2023-04-25T10:26:51;12.90;99.90
11112;DHT22;5609;49.466;8.468;2023-04-25T10:29:26;12.80;99.90
11112;DHT22;5609;49.466;8.468;2023-04-25T10:31:53;12.70;99.90
11112;DHT22;5609;49.466;8.468;2023-04-25T10:34:24;12.60;99.90
11112;DHT22;5609;49.466;8.468;2023-04-25T10:37:00;12.60;99.90
11112;DHT22;5609;49.466;8.468;2023-04-25T10:39:29;12.60;99.90
11112;DHT22;5609;49.466;8.468;2023-04-25T10:41:57;12.60;99.90
11112;DHT22;5609;49.466;8.468;2023-04-25T10:44:28;12.60;99.90
11112;DHT22;5609;49.466;8.468;2023-04-25T10:46:55;12.80;99.90
11112;DHT22;5609;49.466;8.468;2023-04-25T10:49:30;13.00;99.90
11112;DHT22;5609;49.466;8.468;2023-04-25T10:52:14;13.20;99.90
11112;DHT22;5609;49.466;8.468;2023-04-25T10:54:43;13.50;99.90
11112;DHT22;5609;49.466;8.468;2023-04-25T10:57:32;13.20;99.90
11112;DHT22;5609;49.466;8.468;2023-04-25T11:00:09;13.10;99.90
11112;DHT22;5609;49.466;8.468;2023-04-25T11:02:40;13.10;99.90
11112;DHT22;5609;49.466;8.468;2023-04-25T11:05:08;12.90;99.90
11112;DHT22;5609;49.466;8.468;2023-04-25T11:07:38;12.60;99.90
11112;DHT22;5609;49.466;8.468;2023-04-25T11:10:09;12.60;99.90
11112;DHT22;5609;49.466;8.468;2023-04-25T11:12:36;12.70;99.90
11112;DHT22;5609;49.466;8.468;2023-04-25T11:15:04;12.90;99.90
11112;DHT22;5609;49.466;8.468;2023-04-25T11:17:33;13.20;99.90
11112;DHT22;5609;49.466;8.468;2023-04-25T11:20:01;13.40;99.90
11112;DHT22;5609;49.466;8.468;2023-04-25T11:22:31;13.40;99.90
11112;DHT22;5609;49.466;8.468;2023-04-25T11:25:00;13.50;99.90
11112;DHT22;5609;49.466;8.468;2023-04-25T11:27:30;13.40;99.90
11112;DHT22;5609;49.466;8.468;2023-04-25T11:29:58;13.50;99.90
11112;DHT22;5609;49.466;8.468;2023-04-25T11:32:25;13.50;99.90
11112;DHT22;5609;49.466;8.468;2023-04-25T11:34:53;13.30;99.90
11112;DHT22;5609;49.466;8.468;2023-04-25T11:37:20;13.40;99.90
11112;DHT22;5609;49.466;8.468;2023-04-25T11:39:47;13.70;99.90
11112;DHT22;5609;49.466;8.468;2023-04-25T11:42:14;14.00;99.90
11112;DHT22;5609;49.466;8.468;2023-04-25T11:44:40;14.30;99.90
11112;DHT22;5609;49.466;8.468;2023-04-25T11:47:07;14.10;99.90
11112;DHT22;5609;49.466;8.468;2023-04-25T11:49:35;14.10;99.90
11112;DHT22;5609;49.466;8.468;2023-04-25T11:52:06;13.90;99.90
11112;DHT22;5609;49.466;8.468;2023-04-25T11:54:35;13.90;99.90
11112;DHT22;5609;49.466;8.468;2023-04-25T11:57:02;13.90;99.90
11112;DHT22;5609;49.466;8.468;2023-04-25T11:59:29;14.20;99.90
11112;DHT22;5609;49.466;8.468;2023-04-25T12:01:56;14.30;99.90
11112;DHT22;5609;49.466;8.468;2023-04-25T12:04:24;14.50;99.90
11112;DHT22;5609;49.466;8.468;2023-04-25T12:06:52;14.50;99.90
11112;DHT22;5609;49.466;8.468;2023-04-25T12:09:24;14.30;99.90
11112;DHT22;5609;49.466;8.468;2023-04-25T12:11:55;14.10;99.90
11112;DHT22;5609;49.466;8.468;2023-04-25T12:14:23;14.20;99.90
11112;DHT22;5609;49.466;8.468;2023-04-25T12:16:50;13.90;99.90
11112;DHT22;5609;49.466;8.468;2023-04-25T12:19:18;13.80;99.90
11112;DHT22;5609;49.466;8.468;2023-04-25T12:21:45;13.90;99.90
11112;DHT22;5609;49.466;8.468;2023-04-25T12:24:13;13.90;99.90
11112;DHT22;5609;49.466;8.468;2023-04-25T12:26:52;13.80;99.90
11112;DHT22;5609;49.466;8.468;2023-04-25T12:29:21;13.60;99.90
11112;DHT22;5609;49.466;8.468;2023-04-25T12:31:49;13.50;99.90
11112;DHT22;5609;49.466;8.468;2023-04-25T12:34:16;13.60;99.90
11112;DHT22;5609;49.466;8.468;2023-04-25T12:36:43;13.70;99.90
11112;DHT22;5609;49.466;8.468;2023-04-25T12:39:14;13.80;99.90
11112;DHT22;5609;49.466;8.468;2023-04-25T12:41:41;14.10;99.90
11112;DHT22;5609;49.466;8.468;2023-04-25T12:44:09;14.10;99.90
11112;DHT22;5609;49.466;8.468;2023-04-25T12:46:37;14.00;99.90
11112;DHT22;5609;49.466;8.468;2023-04-25T12:49:04;14.00;99.90
11112;DHT22;5609;49.466;8.468;2023-04-25T12:51:31;14.00;99.90
11112;DHT22;5609;49.466;8.468;2023-04-25T12:53:58;14.20;99.90
11112;DHT22;5609;49.466;8.468;2023-04-25T12:56:25;14.50;99.90
11112;DHT22;5609;49.466;8.468;2023-04-25T12:58:52;14.60;99.90
11112;DHT22;5609;49.466;8.468;2023-04-25T13:01:20;14.90;99.20
11112;DHT22;5609;49.466;8.468;2023-04-25T13:03:47;14.80;98.20
11112;DHT22;5609;49.466;8.468;2023-04-25T13:06:14;14.80;99.90
11112;DHT22;5609;49.466;8.468;2023-04-25T13:08:41;14.60;99.90
11112;DHT22;5609;49.466;8.468;2023-04-25T13:11:08;14.30;99.90
11112;DHT22;5609;49.466;8.468;2023-04-25T13:13:35;14.30;99.90
11112;DHT22;5609;49.466;8.468;2023-04-25T13:16:02;14.10;99.90
11112;DHT22;5609;49.466;8.468;2023-04-25T13:18:31;14.00;99.90
11112;DHT22;5609;49.466;8.468;2023-04-25T13:20:58;14.10;99.90
11112;DHT22;5609;49.466;8.468;2023-04-25T13:23:27;14.10;99.90
11112;DHT22;5609;49.466;8.468;2023-04-25T13:25:54;14.10;99.90
11112;DHT22;5609;49.466;8.468;2023-04-25T13:28:23;13.90;99.90
11112;DHT22;5609;49.466;8.468;2023-04-25T13:30:49;14.00;99.90
11112;DHT22;5609;49.466;8.468;2023-04-25T13:33:17;14.00;99.90
11112;DHT22;5609;49.466;8.468;2023-04-25T13:35:45;13.90;99.90
11112;DHT22;5609;49.466;8.468;2023-04-25T13:38:19;13.80;99.90
11112;DHT22;5609;49.466;8.468;2023-04-25T13:40:46;13.60;99.90
11112;DHT22;5609;49.466;8.468;2023-04-25T13:43:12;13.50;99.90
11112;DHT22;5609;49.466;8.468;2023-04-25T13:45:39;13.50;99.90
11112;DHT22;5609;49.466;8.468;2023-04-25T13:48:06;13.40;99.90
11112;DHT22;5609;49.466;8.468;2023-04-25T13:50:33;13.30;99.90
11112;DHT22;5609;49.466;8.468;2023-04-25T13:53:01;13.40;99.90
11112;DHT22;5609;49.466;8.468;2023-04-25T13:55:27;13.40;99.90
11112;DHT22;5609;49.466;8.468;2023-04-25T13:57:55;13.40;99.90
11112;DHT22;5609;49.466;8.468;2023-04-25T14:00:22;13.30;99.90
11112;DHT22;5609;49.466;8.468;2023-04-25T14:02:49;13.30;99.90
11112;DHT22;5609;49.466;8.468;2023-04-25T14:05:16;13.50;99.90
11112;DHT22;5609;49.466;8.468;2023-04-25T14:07:43;13.60;99.90
11112;DHT22;5609;49.466;8.468;2023-04-25T14:10:11;13.60;99.90
11112;DHT22;5609;49.466;8.468;2023-04-25T14:12:38;13.60;99.90
11112;DHT22;5609;49.466;8.468;2023-04-25T14:15:06;13.50;99.90
11112;DHT22;5609;49.466;8.468;2023-04-25T14:17:32;13.40;99.90
11112;DHT22;5609;49.466;8.468;2023-04-25T14:19:59;13.20;99.90
11112;DHT22;5609;49.466;8.468;2023-04-25T14:22:26;12.90;99.90
11112;DHT22;5609;49.466;8.468;2023-04-25T14:24:53;12.70;99.90
11112;DHT22;5609;49.466;8.468;2023-04-25T14:27:21;12.50;99.90
11112;DHT22;5609;49.466;8.468;2023-04-25T14:29:47;12.30;99.90
11112;DHT22;5609;49.466;8.468;2023-04-25T14:32:14;12.30;99.90
11112;DHT22;5609;49.466;8.468;2023-04-25T14:34:41;12.30;99.90
11112;DHT22;5609;49.466;8.468;2023-04-25T14:37:07;12.20;99.90
11112;DHT22;5609;49.466;8.468;2023-04-25T14:39:34;12.30;99.90
11112;DHT22;5609;49.466;8.468;2023-04-25T14:42:02;12.40;99.90
11112;DHT22;5609;49.466;8.468;2023-04-25T14:44:30;12.30;99.90
11112;DHT22;5609;49.466;8.468;2023-04-25T14:46:56;12.30;99.90
11112;DHT22;5609;49.466;8.468;2023-04-25T14:49:23;12.40;99.90
11112;DHT22;5609;49.466;8.468;2023-04-25T14:51:50;12.40;99.90
11112;DHT22;5609;49.466;8.468;2023-04-25T14:54:17;12.50;99.90
11112;DHT22;5609;49.466;8.468;2023-04-25T14:56:45;12.60;99.90
11112;DHT22;5609;49.466;8.468;2023-04-25T14:59:12;13.00;99.90
11112;DHT22;5609;49.466;8.468;2023-04-25T15:01:40;13.30;99.90
11112;DHT22;5609;49.466;8.468;2023-04-25T15:04:06;13.80;99.90
11112;DHT22;5609;49.466;8.468;2023-04-25T15:06:33;14.10;99.90
11112;DHT22;5609;49.466;8.468;2023-04-25T15:09:00;14.60;99.40
11112;DHT22;5609;49.466;8.468;2023-04-25T15:11:27;14.70;94.60
11112;DHT22;5609;49.466;8.468;2023-04-25T15:13:54;14.80;93.80
11112;DHT22;5609;49.466;8.468;2023-04-25T15:16:20;14.60;92.00
11112;DHT22;5609;49.466;8.468;2023-04-25T15:18:48;14.70;94.70
11112;DHT22;5609;49.466;8.468;2023-04-25T15:21:15;14.80;88.00
11112;DHT22;5609;49.466;8.468;2023-04-25T15:23:42;14.90;82.80
11112;DHT22;5609;49.466;8.468;2023-04-25T15:26:09;14.70;76.20
11112;DHT22;5609;49.466;8.468;2023-04-25T15:28:36;14.50;85.10
11112;DHT22;5609;49.466;8.468;2023-04-25T15:31:03;14.70;85.00
11112;DHT22;5609;49.466;8.468;2023-04-25T15:33:30;14.60;88.00
11112;DHT22;5609;49.466;8.468;2023-04-25T15:35:59;14.50;73.10
11112;DHT22;5609;49.466;8.468;2023-04-25T15:38:25;14.10;72.30
11112;DHT22;5609;49.466;8.468;2023-04-25T15:40:52;13.60;79.20
11112;DHT22;5609;49.466;8.468;2023-04-25T15:43:19;13.40;86.90
11112;DHT22;5609;49.466;8.468;2023-04-25T15:45:45;13.20;91.30
11112;DHT22;5609;49.466;8.468;2023-04-25T15:48:12;13.00;94.20
11112;DHT22;5609;49.466;8.468;2023-04-25T15:50:40;13.00;96.10
11112;DHT22;5609;49.466;8.468;2023-04-25T15:53:08;12.90;95.20
11112;DHT22;5609;49.466;8.468;2023-04-25T15:55:35;12.90;95.80
11112;DHT22;5609;49.466;8.468;2023-04-25T15:58:02;12.80;97.80